createdAt,value
2022-08-02T00:00:34.046Z,95.85
2022-08-02T00:03:00.521Z,95.90
2022-08-02T00:05:27.110Z,95.37
2022-08-02T00:07:53.650Z,95.88
2022-08-02T00:10:20.154Z,96.31
2022-08-02T00:12:46.624Z,96.17
2022-08-02T00:15:16.072Z,96.14
2022-08-02T00:17:44.172Z,96.47
2022-08-02T00:20:11.840Z,96.69
2022-08-02T00:22:38.637Z,97.20
2022-08-02T00:25:05.652Z,96.51
2022-08-02T00:27:32.391Z,98.12
2022-08-02T00:29:58.908Z,98.59
2022-08-02T00:32:25.461Z,98.28
2022-08-02T00:34:52.201Z,98.68
2022-08-02T00:37:18.859Z,99.26
2022-08-02T00:39:45.390Z,99.62
2022-08-02T00:42:15.254Z,100.00
2022-08-02T00:44:42.332Z,99.86
2022-08-02T00:47:09.271Z,100.00
2022-08-02T00:49:35.841Z,100.00
2022-08-02T00:52:02.752Z,100.00
2022-08-02T00:54:30.270Z,100.00
2022-08-02T00:56:56.786Z,100.00
2022-08-02T00:59:43.381Z,100.00
2022-08-02T01:02:29.959Z,100.00
2022-08-02T01:05:16.533Z,100.00
2022-08-02T01:08:04.341Z,100.00
2022-08-02T01:10:50.905Z,100.00
2022-08-02T01:13:37.618Z,100.00
2022-08-02T01:16:14.885Z,100.00
2022-08-02T01:18:47.713Z,100.00
2022-08-02T01:21:20.138Z,100.00
2022-08-02T01:24:05.534Z,100.00
2022-08-02T01:26:42.353Z,100.00
2022-08-02T01:29:16.903Z,100.00
2022-08-02T01:31:48.723Z,100.00
2022-08-02T01:34:24.387Z,100.00
2022-08-02T01:37:21.806Z,100.00
2022-08-02T01:39:55.685Z,100.00
2022-08-02T01:42:25.341Z,100.00
2022-08-02T01:44:53.808Z,100.00
2022-08-02T01:47:26.380Z,100.00
2022-08-02T01:49:56.247Z,100.00
2022-08-02T01:52:26.218Z,100.00
2022-08-02T01:55:01.091Z,100.00
2022-08-02T01:57:41.982Z,100.00
2022-08-02T02:00:10.620Z,100.00
2022-08-02T02:02:41.596Z,100.00
2022-08-02T02:05:13.192Z,100.00
2022-08-02T02:07:42.273Z,100.00
2022-08-02T02:10:11.899Z,100.00
2022-08-02T02:12:40.125Z,100.00
2022-08-02T02:15:11.261Z,100.00
2022-08-02T02:17:50.528Z,100.00
2022-08-02T02:20:28.903Z,100.00
2022-08-02T02:22:55.759Z,100.00
2022-08-02T02:25:24.336Z,100.00
2022-08-02T02:28:06.947Z,100.00
2022-08-02T02:30:34.577Z,100.00
2022-08-02T02:33:03.241Z,100.00
2022-08-02T02:35:33.664Z,100.00
2022-08-02T02:38:01.920Z,100.00
2022-08-02T02:40:29.198Z,100.00
2022-08-02T02:42:58.068Z,100.00
2022-08-02T02:45:25.940Z,100.00
2022-08-02T02:47:55.078Z,100.00
2022-08-02T02:50:22.827Z,100.00
2022-08-02T02:52:50.652Z,100.00
2022-08-02T02:55:17.934Z,100.00
2022-08-02T02:57:45.556Z,100.00
2022-08-02T03:00:13.728Z,100.00
2022-08-02T03:02:42.513Z,100.00
2022-08-02T03:05:10.623Z,100.00
2022-08-02T03:07:37.219Z,100.00
2022-08-02T03:10:06.461Z,100.00
2022-08-02T03:12:34.820Z,100.00
2022-08-02T03:15:07.676Z,100.00
2022-08-02T03:17:52.597Z,100.00
2022-08-02T03:20:20.432Z,100.00
2022-08-02T03:22:47.805Z,100.00
2022-08-02T03:25:15.932Z,100.00
2022-08-02T03:27:42.972Z,100.00
2022-08-02T03:30:11.793Z,100.00
2022-08-02T03:32:40.587Z,100.00
2022-08-02T03:35:10.658Z,100.00
2022-08-02T03:37:37.675Z,100.00
2022-08-02T03:40:08.117Z,100.00
2022-08-02T03:42:34.737Z,100.00
2022-08-02T03:45:08.213Z,100.00
2022-08-02T03:47:37.552Z,100.00
2022-08-02T03:50:04.885Z,100.00
2022-08-02T03:52:33.356Z,100.00
2022-08-02T03:54:59.955Z,100.00
2022-08-02T03:57:26.853Z,100.00
2022-08-02T03:59:53.310Z,100.00
2022-08-02T04:02:20.035Z,100.00
2022-08-02T04:04:46.495Z,100.00
2022-08-02T04:07:13.232Z,100.00
2022-08-02T04:09:39.823Z,100.00
2022-08-02T04:12:06.552Z,100.00
2022-08-02T04:14:35.586Z,100.00
2022-08-02T04:17:07.300Z,100.00
2022-08-02T04:19:50.012Z,100.00
2022-08-02T04:22:21.271Z,100.00
2022-08-02T04:24:51.859Z,100.00
2022-08-02T04:27:50.666Z,100.00
2022-08-02T04:30:08.266Z,100.00
2022-08-02T04:32:35.573Z,100.00
2022-08-02T04:38:09.293Z,100.00
2022-08-02T04:40:36.442Z,100.00
2022-08-02T04:43:03.021Z,100.00
2022-08-02T04:45:30.614Z,100.00
2022-08-02T04:48:05.648Z,100.00
2022-08-02T04:50:33.520Z,100.00
2022-08-02T04:53:00.031Z,100.00
2022-08-02T04:55:28.685Z,100.00
2022-08-02T04:57:57.281Z,100.00
2022-08-02T05:00:27.497Z,100.00
2022-08-02T05:02:56.344Z,100.00
2022-08-02T05:05:23.228Z,100.00
2022-08-02T05:07:49.808Z,100.00
2022-08-02T05:10:16.246Z,100.00
2022-08-02T05:12:42.799Z,100.00
2022-08-02T05:15:12.600Z,100.00
2022-08-02T05:17:40.678Z,100.00
2022-08-02T05:20:15.964Z,100.00
2022-08-02T05:22:42.712Z,100.00
2022-08-02T05:25:10.100Z,100.00
2022-08-02T05:27:36.757Z,100.00
2022-08-02T05:30:04.624Z,100.00
2022-08-02T05:32:31.161Z,100.00
2022-08-02T05:34:57.832Z,100.00
2022-08-02T05:37:24.374Z,100.00
2022-08-02T05:39:55.497Z,100.00
2022-08-02T05:42:23.551Z,100.00
2022-08-02T05:44:50.278Z,100.00
2022-08-02T05:47:16.987Z,100.00
2022-08-02T05:49:43.487Z,100.00
2022-08-02T05:52:15.952Z,100.00
2022-08-02T05:55:15.014Z,100.00
2022-08-02T05:57:50.511Z,100.00
2022-08-02T06:00:17.792Z,100.00
2022-08-02T06:03:16.540Z,100.00
2022-08-02T06:06:12.432Z,100.00
2022-08-02T06:08:48.368Z,100.00
2022-08-02T06:11:17.375Z,100.00
2022-08-02T06:13:45.930Z,100.00
2022-08-02T06:16:14.925Z,100.00
2022-08-02T06:18:43.611Z,100.00
2022-08-02T06:22:35.790Z,100.00
2022-08-02T06:23:59.345Z,100.00
2022-08-02T06:26:29.072Z,100.00
2022-08-02T06:28:58.181Z,100.00
2022-08-02T06:31:25.347Z,100.00
2022-08-02T06:33:52.216Z,100.00
2022-08-02T06:36:49.437Z,100.00
2022-08-02T06:39:25.721Z,100.00
2022-08-02T06:41:54.600Z,100.00
2022-08-02T06:47:13.270Z,100.00
2022-08-02T06:49:52.541Z,100.00
2022-08-02T06:52:33.159Z,100.00
2022-08-02T06:55:01.636Z,100.00
2022-08-02T06:57:29.349Z,100.00
2022-08-02T06:59:56.392Z,100.00
2022-08-02T07:02:23.247Z,100.00
2022-08-02T07:04:49.885Z,100.00
2022-08-02T07:07:16.481Z,99.56
2022-08-02T07:09:56.311Z,99.52
2022-08-02T07:12:29.068Z,97.43
2022-08-02T07:14:55.648Z,96.93
2022-08-02T07:17:22.359Z,96.89
2022-08-02T07:19:48.898Z,96.93
2022-08-02T07:22:15.847Z,95.78
2022-08-02T07:24:42.539Z,95.57
2022-08-02T07:27:11.724Z,93.52
2022-08-02T07:29:44.971Z,93.51
2022-08-02T07:32:21.224Z,91.77
2022-08-02T07:34:52.601Z,89.90
2022-08-02T07:37:53.551Z,89.71
2022-08-02T07:40:13.799Z,88.27
2022-08-02T07:42:43.493Z,87.12
2022-08-02T07:45:11.928Z,86.60
2022-08-02T07:47:39.837Z,84.89
2022-08-02T07:50:07.890Z,83.02
2022-08-02T07:52:34.660Z,81.32
2022-08-02T07:55:01.244Z,80.19
2022-08-02T07:57:27.676Z,77.85
2022-08-02T07:59:54.133Z,76.50
2022-08-02T08:02:20.627Z,76.19
2022-08-02T08:04:47.107Z,74.16
2022-08-02T08:07:13.575Z,71.49
2022-08-02T08:09:42.070Z,71.99
2022-08-02T08:12:10.163Z,71.61
2022-08-02T08:14:38.803Z,69.99
2022-08-02T08:17:06.406Z,69.46
2022-08-02T08:19:36.497Z,67.92
2022-08-02T08:22:21.713Z,66.03
2022-08-02T08:24:48.922Z,65.00
2022-08-02T08:27:16.278Z,60.81
2022-08-02T08:29:43.461Z,60.22
2022-08-02T08:32:15.792Z,59.13
2022-08-02T08:34:43.043Z,59.40
2022-08-02T08:37:09.558Z,57.60
2022-08-02T08:39:57.803Z,54.39
2022-08-02T08:42:30.396Z,53.49
2022-08-02T08:44:58.691Z,53.61
2022-08-02T08:47:34.812Z,51.12
2022-08-02T08:50:04.960Z,51.22
2022-08-02T08:52:35.293Z,50.18
2022-08-02T08:55:03.507Z,50.15
2022-08-02T08:57:30.612Z,48.72
2022-08-02T08:59:57.263Z,46.16
2022-08-02T09:02:28.057Z,44.43
2022-08-02T09:04:55.544Z,44.32
2022-08-02T09:07:23.281Z,44.33
2022-08-02T09:09:49.856Z,44.23
2022-08-02T09:12:19.475Z,44.01
2022-08-02T09:14:46.512Z,44.59
2022-08-02T09:17:17.818Z,44.34
2022-08-02T09:19:45.912Z,42.39
2022-08-02T09:22:15.098Z,41.41
2022-08-02T09:24:44.332Z,41.62
2022-08-02T09:27:16.101Z,41.16
2022-08-02T09:30:12.283Z,40.71
2022-08-02T09:32:48.249Z,40.88
2022-08-02T09:36:06.503Z,40.66
2022-08-02T09:38:18.514Z,40.97
2022-08-02T09:40:45.228Z,39.34
2022-08-02T09:43:11.811Z,39.43
2022-08-02T09:45:38.506Z,39.69
2022-08-02T09:48:09.195Z,39.09
2022-08-02T09:50:41.058Z,38.96
2022-08-02T09:53:14.244Z,39.72
2022-08-02T09:55:42.175Z,39.75
2022-08-02T09:58:22.124Z,39.00
2022-08-02T10:00:56.010Z,38.21
2022-08-02T10:03:23.031Z,37.83
2022-08-02T10:06:02.252Z,36.92
2022-08-02T10:08:32.870Z,39.33
2022-08-02T10:11:00.787Z,37.93
2022-08-02T10:13:34.354Z,38.66
2022-08-02T10:16:02.662Z,37.71
2022-08-02T10:18:38.822Z,37.47
2022-08-02T10:21:22.319Z,36.02
2022-08-02T10:23:50.137Z,35.61
2022-08-02T10:26:20.688Z,35.70
2022-08-02T10:28:49.437Z,35.55
2022-08-02T10:31:28.273Z,34.41
2022-08-02T10:33:58.552Z,34.23
2022-08-02T10:36:27.274Z,34.20
2022-08-02T10:38:55.432Z,34.02
2022-08-02T10:41:40.887Z,33.34
2022-08-02T10:44:07.866Z,34.06
2022-08-02T10:46:51.182Z,33.36
2022-08-02T10:49:39.746Z,34.24
2022-08-02T10:52:08.781Z,33.35
2022-08-02T10:54:41.663Z,33.13
2022-08-02T10:57:35.392Z,33.19
2022-08-02T11:00:34.628Z,32.38
2022-08-02T11:03:01.452Z,32.40
2022-08-02T11:05:43.284Z,32.15
2022-08-02T11:08:21.663Z,31.52
2022-08-02T11:10:48.219Z,29.66
2022-08-02T11:13:19.692Z,31.47
2022-08-02T11:16:10.778Z,31.51
2022-08-02T11:18:44.319Z,30.72
2022-08-02T11:21:22.120Z,30.62
2022-08-02T11:23:49.618Z,28.56
2022-08-02T11:26:31.277Z,28.24
2022-08-02T11:29:05.282Z,29.20
2022-08-02T11:31:44.073Z,29.48
2022-08-02T11:34:36.441Z,27.97
2022-08-02T11:36:58.911Z,27.93
2022-08-02T11:39:25.438Z,26.81
2022-08-02T11:41:55.073Z,27.49
2022-08-02T11:44:25.499Z,28.07
2022-08-02T11:47:00.703Z,27.31
2022-08-02T11:49:29.040Z,27.50
2022-08-02T11:52:05.330Z,27.24
2022-08-02T11:54:35.267Z,26.73
2022-08-02T11:57:20.324Z,27.13
2022-08-02T11:59:50.173Z,27.49
2022-08-02T12:02:17.838Z,28.20
2022-08-02T12:04:53.322Z,26.66
2022-08-02T12:07:35.015Z,25.74
2022-08-02T12:10:11.392Z,25.66
2022-08-02T12:12:54.478Z,25.06
2022-08-02T12:15:41.490Z,25.24
2022-08-02T12:18:32.058Z,24.41
2022-08-02T12:20:59.083Z,24.65
2022-08-02T12:23:26.343Z,24.46
2022-08-02T12:26:06.365Z,26.44
2022-08-02T12:28:39.095Z,26.09
2022-08-02T12:31:07.599Z,24.39
2022-08-02T12:33:50.174Z,24.54
2022-08-02T12:36:21.875Z,24.83
2022-08-02T12:38:55.473Z,24.73
2022-08-02T12:41:30.325Z,23.37
2022-08-02T12:43:59.778Z,22.87
2022-08-02T12:46:26.761Z,24.40
2022-08-02T12:49:16.508Z,24.41
2022-08-02T12:51:55.615Z,23.66
2022-08-02T12:54:38.282Z,23.08
2022-08-02T12:57:12.963Z,23.79
2022-08-02T12:59:42.238Z,24.29
2022-08-02T13:02:11.581Z,23.71
2022-08-02T13:04:39.120Z,22.55
2022-08-02T13:07:06.536Z,22.62
2022-08-02T13:09:38.621Z,21.96
2022-08-02T13:12:06.826Z,22.46
2022-08-02T13:14:39.630Z,23.40
2022-08-02T13:17:10.039Z,22.59
2022-08-02T13:19:38.147Z,22.05
2022-08-02T13:22:05.315Z,22.33
2022-08-02T13:24:41.080Z,23.11
2022-08-02T13:27:20.879Z,23.34
2022-08-02T13:29:48.898Z,23.34
2022-08-02T13:32:16.474Z,22.90
2022-08-02T13:34:43.462Z,21.79
2022-08-02T13:37:10.305Z,22.07
2022-08-02T13:39:39.942Z,22.02
2022-08-02T13:42:07.005Z,22.29
2022-08-02T13:44:34.509Z,21.25
2022-08-02T13:47:02.213Z,21.30
2022-08-02T13:49:49.722Z,21.19
2022-08-02T13:52:16.252Z,19.64
2022-08-02T13:54:43.192Z,20.44
2022-08-02T13:57:09.836Z,20.11
2022-08-02T13:59:58.017Z,20.08
2022-08-02T14:02:23.209Z,19.64
2022-08-02T14:04:49.915Z,19.92
2022-08-02T14:07:16.466Z,19.81
2022-08-02T14:09:43.572Z,19.41
2022-08-02T14:12:11.105Z,19.11
2022-08-02T14:14:37.895Z,20.11
2022-08-02T14:17:04.417Z,19.37
2022-08-02T14:19:31.215Z,19.59
2022-08-02T14:22:11.449Z,20.03
2022-08-02T14:24:41.338Z,19.30
2022-08-02T14:27:08.155Z,18.88
2022-08-02T14:29:34.770Z,19.73
2022-08-02T14:32:01.684Z,19.08
2022-08-02T14:34:29.151Z,18.12
2022-08-02T14:36:56.273Z,19.27
2022-08-02T14:39:23.002Z,18.59
2022-08-02T14:41:59.987Z,18.16
2022-08-02T14:44:30.371Z,17.58
2022-08-02T14:46:57.366Z,17.26
2022-08-02T14:49:25.987Z,20.44
2022-08-02T14:51:53.737Z,19.18
2022-08-02T14:54:28.129Z,18.62
2022-08-02T14:57:01.787Z,17.50
2022-08-02T14:59:29.510Z,19.37
2022-08-02T15:01:56.072Z,19.38
2022-08-02T15:04:22.819Z,18.69
2022-08-02T15:06:49.343Z,18.10
2022-08-02T15:09:16.034Z,18.20
2022-08-02T15:11:48.105Z,17.91
2022-08-02T15:14:21.748Z,18.26
2022-08-02T15:16:58.400Z,17.67
2022-08-02T15:19:44.935Z,18.54
2022-08-02T15:22:16.845Z,17.97
2022-08-02T15:24:46.900Z,18.12
2022-08-02T15:27:14.785Z,18.25
2022-08-02T15:29:43.607Z,17.65
2022-08-02T15:32:11.216Z,17.92
2022-08-02T15:34:38.423Z,18.59
2022-08-02T15:37:04.983Z,18.18
2022-08-02T15:39:31.669Z,18.29
2022-08-02T15:41:58.288Z,18.12
2022-08-02T15:44:24.993Z,18.80
2022-08-02T15:46:51.785Z,19.10
2022-08-02T15:49:20.286Z,18.67
2022-08-02T15:51:46.889Z,18.88
2022-08-02T15:54:13.313Z,19.51
2022-08-02T15:56:39.818Z,19.37
2022-08-02T15:59:06.287Z,19.00
2022-08-02T16:01:37.832Z,19.85
2022-08-02T16:04:06.733Z,19.35
2022-08-02T16:06:34.291Z,19.57
2022-08-02T16:09:01.278Z,19.47
2022-08-02T16:11:28.140Z,19.54
2022-08-02T16:13:55.052Z,19.74
2022-08-02T16:16:23.442Z,19.80
2022-08-02T16:18:50.084Z,20.13
2022-08-02T16:21:16.646Z,20.86
2022-08-02T16:24:01.600Z,19.99
2022-08-02T16:26:31.401Z,20.61
2022-08-02T16:28:59.380Z,20.16
2022-08-02T16:31:26.097Z,20.06
2022-08-02T16:33:56.610Z,20.77
2022-08-02T16:36:24.398Z,20.79
2022-08-02T16:38:50.876Z,20.86
2022-08-02T16:41:17.344Z,21.75
2022-08-02T16:43:43.844Z,21.79
2022-08-02T16:46:10.374Z,22.18
2022-08-02T16:48:37.220Z,21.85
2022-08-02T16:51:04.577Z,21.95
2022-08-02T16:53:37.237Z,21.24
2022-08-02T16:56:05.476Z,21.94
2022-08-02T16:58:31.925Z,21.32
2022-08-02T17:00:58.484Z,21.22
2022-08-02T17:03:24.991Z,21.77
2022-08-02T17:06:11.495Z,20.59
2022-08-02T17:08:54.138Z,20.91
2022-08-02T17:11:21.616Z,21.21
2022-08-02T17:13:50.811Z,20.38
2022-08-02T17:16:20.524Z,20.87
2022-08-02T17:18:53.018Z,21.40
2022-08-02T17:21:19.819Z,21.62
2022-08-02T17:24:06.073Z,21.50
2022-08-02T17:26:32.992Z,21.96
2022-08-02T17:29:17.758Z,23.16
2022-08-02T17:32:04.768Z,22.65
2022-08-02T17:34:33.468Z,21.90
2022-08-02T17:37:00.199Z,22.67
2022-08-02T17:39:33.796Z,22.21
2022-08-02T17:42:01.646Z,22.58
2022-08-02T17:44:36.573Z,22.93
2022-08-02T17:47:06.506Z,22.89
2022-08-02T17:49:33.202Z,23.46
2022-08-02T17:52:49.148Z,24.33
2022-08-02T17:54:46.315Z,24.11
2022-08-02T17:57:12.903Z,23.89
2022-08-02T17:59:41.989Z,24.59
2022-08-02T18:02:11.486Z,24.39
2022-08-02T18:04:38.253Z,25.01
2022-08-02T18:07:09.419Z,24.59
2022-08-02T18:09:45.069Z,25.22
2022-08-02T18:12:14.486Z,24.47
2022-08-02T18:14:46.047Z,24.82
2022-08-02T18:17:16.892Z,24.87
2022-08-02T18:19:55.460Z,25.42
2022-08-02T18:22:26.942Z,25.96
2022-08-02T18:24:53.910Z,25.94
2022-08-02T18:27:20.568Z,28.17
2022-08-02T18:29:47.344Z,28.33
2022-08-02T18:32:14.117Z,29.32
2022-08-02T18:34:40.819Z,29.09
2022-08-02T18:37:14.149Z,29.73
2022-08-02T18:39:51.169Z,29.68
2022-08-02T18:42:18.504Z,30.43
2022-08-02T18:44:45.072Z,30.46
2022-08-02T18:47:11.584Z,30.71
2022-08-02T18:49:46.151Z,31.42
2022-08-02T18:52:14.932Z,31.37
2022-08-02T18:54:41.966Z,31.74
2022-08-02T18:59:56.663Z,32.25
2022-08-02T19:02:31.789Z,32.52
2022-08-02T19:04:59.938Z,33.06
2022-08-02T19:07:51.423Z,33.36
2022-08-02T19:10:13.480Z,33.86
2022-08-02T19:12:40.257Z,34.29
2022-08-02T19:15:08.183Z,34.39
2022-08-02T19:17:55.598Z,34.08
2022-08-02T19:20:21.157Z,34.83
2022-08-02T19:22:49.984Z,35.27
2022-08-02T19:25:20.922Z,35.55
2022-08-02T19:27:54.958Z,35.81
2022-08-02T19:30:25.824Z,36.29
2022-08-02T19:32:59.448Z,36.83
2022-08-02T19:35:29.757Z,37.26
2022-08-02T19:38:07.265Z,37.36
2022-08-02T19:40:33.794Z,37.30
2022-08-02T19:44:24.050Z,38.12
2022-08-02T19:45:50.527Z,38.17
2022-08-02T19:48:23.423Z,38.86
2022-08-02T19:50:53.514Z,39.15
2022-08-02T19:53:22.725Z,39.19
2022-08-02T19:56:01.546Z,39.14
2022-08-02T19:58:30.461Z,39.32
2022-08-02T20:00:58.030Z,39.76
2022-08-02T20:03:39.906Z,40.16
2022-08-02T20:06:12.340Z,40.22
2022-08-02T20:08:39.489Z,40.16
2022-08-02T20:11:06.902Z,40.41
2022-08-02T20:13:47.165Z,40.41
2022-08-02T20:16:27.526Z,40.21
2022-08-02T20:19:05.619Z,40.87
2022-08-02T20:21:36.982Z,40.74
2022-08-02T20:24:05.636Z,41.13
2022-08-02T20:26:35.365Z,42.22
2022-08-02T20:29:03.652Z,42.05
2022-08-02T20:31:30.595Z,41.78
2022-08-02T20:33:57.446Z,41.09
2022-08-02T20:36:25.484Z,40.91
2022-08-02T20:38:52.425Z,40.98
2022-08-02T20:41:22.139Z,42.23
2022-08-02T20:43:49.310Z,42.45
2022-08-02T20:46:16.213Z,42.50
2022-08-02T20:48:44.138Z,41.97
2022-08-02T20:51:12.375Z,41.58
2022-08-02T20:53:55.097Z,41.09
2022-08-02T20:56:23.402Z,41.06
2022-08-02T20:58:52.095Z,40.93
2022-08-02T21:01:21.118Z,41.50
2022-08-02T21:03:58.761Z,41.73
2022-08-02T21:06:29.762Z,41.94
2022-08-02T21:08:56.811Z,42.89
2022-08-02T21:11:33.473Z,42.77
2022-08-02T21:14:07.877Z,43.46
2022-08-02T21:16:36.801Z,43.60
2022-08-02T21:19:08.103Z,43.69
2022-08-02T21:21:36.892Z,43.53
2022-08-02T21:24:04.032Z,43.79
2022-08-02T21:26:32.419Z,43.81
2022-08-02T21:29:03.989Z,43.93
2022-08-02T21:31:35.887Z,44.13
2022-08-02T21:34:19.221Z,44.03
2022-08-02T21:36:49.670Z,44.08
2022-08-02T21:39:17.090Z,43.90
2022-08-02T21:41:46.537Z,45.06
2022-08-02T21:44:18.723Z,45.33
2022-08-02T21:46:49.388Z,44.91
2022-08-02T21:49:17.812Z,46.10
2022-08-02T21:54:31.639Z,46.44
2022-08-02T21:57:00.565Z,45.35
2022-08-02T21:59:27.006Z,45.85
2022-08-02T22:01:56.924Z,46.20
2022-08-02T22:04:24.405Z,46.34
2022-08-02T22:06:50.986Z,47.24
2022-08-02T22:09:44.107Z,47.17
2022-08-02T22:12:09.774Z,46.26
2022-08-02T22:14:39.447Z,46.94
2022-08-02T22:17:09.108Z,47.53
2022-08-02T22:19:40.073Z,46.49
2022-08-02T22:22:20.336Z,46.74
2022-08-02T22:24:46.802Z,47.22
2022-08-02T22:27:14.100Z,46.90
2022-08-02T22:29:40.626Z,47.12
2022-08-02T22:32:07.315Z,47.55
2022-08-02T22:34:51.256Z,47.33
2022-08-02T22:38:15.235Z,48.02
2022-08-02T22:40:08.609Z,48.36
2022-08-02T22:42:53.933Z,48.61
2022-08-02T22:45:22.223Z,48.67
2022-08-02T22:47:50.814Z,48.78
2022-08-02T22:50:19.084Z,49.08
2022-08-02T22:52:46.802Z,49.75
2022-08-02T22:55:17.777Z,49.42
2022-08-02T22:57:56.296Z,50.11
2022-08-02T22:58:46.368Z,31.70
2022-08-02T22:59:03.619Z,45.85
2022-08-02T23:00:25.106Z,49.52
2022-08-02T23:02:51.738Z,49.66
2022-08-02T23:05:18.452Z,50.01
2022-08-02T23:07:45.186Z,50.03
2022-08-02T23:10:11.698Z,50.21
2022-08-02T23:12:38.256Z,50.39
2022-08-02T23:15:05.174Z,51.25
2022-08-02T23:17:50.086Z,50.50
2022-08-02T23:20:20.116Z,50.99
2022-08-02T23:22:46.586Z,50.75
2022-08-02T23:25:14.510Z,50.71
2022-08-02T23:27:49.663Z,51.81
2022-08-02T23:30:17.213Z,52.71
2022-08-02T23:32:43.756Z,52.78
2022-08-02T23:35:10.575Z,53.13
2022-08-02T23:37:59.786Z,53.59
2022-08-02T23:40:38.818Z,53.18
2022-08-02T23:43:14.686Z,53.69
2022-08-02T23:45:48.413Z,53.32
2022-08-02T23:48:15.049Z,54.23
2022-08-02T23:50:41.519Z,54.94
2022-08-02T23:53:08.014Z,54.34
2022-08-02T23:55:34.669Z,54.29
2022-08-02T23:58:01.116Z,54.67
